Time;durP1;ratioP1;P1;durP2;ratioP2;P2;SDS_P1;SDS_P2;PMS_P1;PMS_P2;Temp;Humidity;BMP_temperature;BMP_pressure;BME280_temperature;BME280_humidity;BME280_pressure;Samples;Min_cycle;Max_cycle;Signal;HPM_P1;HPM_P2
2022/08/03 00:01:51;;;;;;;8.50;1.85;;;19.20;99.90;;;;;;4737896;30;20066;-88
2022/08/03 00:04:16;;;;;;;12.40;1.80;;;19.20;99.90;;;;;;4738545;30;20055;-88
2022/08/03 00:06:42;;;;;;;11.43;2.30;;;19.20;99.90;;;;;;4736908;30;20420;-89
2022/08/03 00:09:08;;;;;;;15.65;2.60;;;19.10;99.90;;;;;;4738073;30;20050;-89
2022/08/03 00:11:35;;;;;;;11.02;2.33;;;19.10;99.90;;;;;;4738358;30;20059;-88
2022/08/03 00:14:02;;;;;;;11.40;2.35;;;19.10;99.90;;;;;;4737806;30;20051;-87
2022/08/03 00:16:28;;;;;;;12.13;2.33;;;19.10;99.90;;;;;;4737798;30;20059;-88
2022/08/03 00:18:54;;;;;;;15.10;1.90;;;19.10;99.90;;;;;;4737815;30;20047;-88
2022/08/03 00:21:19;;;;;;;15.60;2.15;;;19.10;99.90;;;;;;4750002;30;20467;-88
2022/08/03 00:23:45;;;;;;;13.70;2.25;;;19.10;99.90;;;;;;4755631;30;20047;-88
2022/08/03 00:26:11;;;;;;;16.30;2.63;;;19.00;99.90;;;;;;4752312;30;20050;-88
2022/08/03 00:28:36;;;;;;;9.85;2.42;;;19.00;99.90;;;;;;4767130;30;20059;-88
2022/08/03 00:31:02;;;;;;;12.27;2.03;;;19.00;99.90;;;;;;4766687;30;20110;-88
2022/08/03 00:33:28;;;;;;;13.75;2.20;;;19.00;99.90;;;;;;4767018;30;20052;-88
2022/08/03 00:35:54;;;;;;;9.20;1.83;;;19.00;99.90;;;;;;4767128;30;20138;-88
2022/08/03 00:38:20;;;;;;;12.15;2.42;;;19.00;99.90;;;;;;4751686;30;20058;-88
2022/08/03 00:40:46;;;;;;;15.43;2.42;;;19.00;99.90;;;;;;4767494;30;20087;-88
2022/08/03 00:43:11;;;;;;;7.55;1.95;;;18.90;99.90;;;;;;4766628;30;20079;-88
2022/08/03 00:45:40;;;;;;;18.08;2.50;;;18.90;99.90;;;;;;4766704;30;20048;-88
2022/08/03 00:48:08;;;;;;;14.38;2.10;;;18.90;99.90;;;;;;4751613;30;20138;-88
2022/08/03 00:50:37;;;;;;;10.90;2.20;;;18.90;99.90;;;;;;4751892;30;20143;-88
2022/08/03 00:53:06;;;;;;;13.52;2.60;;;18.80;99.90;;;;;;4751580;30;20087;-88
2022/08/03 00:55:32;;;;;;;19.42;2.83;;;18.80;99.90;;;;;;4751646;30;20164;-88
2022/08/03 00:58:00;;;;;;;12.18;2.50;;;18.80;99.90;;;;;;4752413;30;20151;-88
2022/08/03 01:00:27;;;;;;;9.93;2.00;;;18.80;99.90;;;;;;4751247;30;20064;-87
2022/08/03 01:02:53;;;;;;;10.60;1.98;;;18.80;99.90;;;;;;4751915;30;20091;-88
2022/08/03 01:05:20;;;;;;;17.77;2.85;;;18.80;99.90;;;;;;4751512;30;20064;-88
2022/08/03 01:07:53;;;;;;;12.10;2.17;;;18.80;99.90;;;;;;4752151;30;20138;-88
2022/08/03 01:10:27;;;;;;;9.32;2.30;;;18.80;99.90;;;;;;4766142;30;20048;-88
2022/08/03 01:13:16;;;;;;;14.45;2.58;;;18.70;99.90;;;;;;4751597;30;20044;-88
2022/08/03 01:15:47;;;;;;;11.55;2.53;;;18.70;99.90;;;;;;4751067;30;20485;-88
2022/08/03 01:18:19;;;;;;;15.55;2.55;;;18.70;99.90;;;;;;4766370;30;20062;-88
2022/08/03 01:20:50;;;;;;;15.55;2.40;;;18.70;99.90;;;;;;4752081;30;20070;-88
2022/08/03 01:23:38;;;;;;;15.30;2.85;;;18.70;99.90;;;;;;4751369;30;20408;-88
2022/08/03 01:26:31;;;;;;;16.48;2.10;;;18.70;99.90;;;;;;4766821;30;20355;-88
2022/08/03 01:29:26;;;;;;;12.68;2.22;;;18.70;99.90;;;;;;4752004;30;20056;-88
2022/08/03 01:31:59;;;;;;;11.88;2.50;;;18.60;99.90;;;;;;4750893;30;20143;-88
2022/08/03 01:34:47;;;;;;;11.90;2.70;;;18.60;99.90;;;;;;4751552;30;20095;-88
2022/08/03 01:37:20;;;;;;;10.18;1.75;;;18.60;99.90;;;;;;4751139;30;20109;-88
2022/08/03 01:39:47;;;;;;;12.60;1.83;;;18.60;99.90;;;;;;4751846;30;20052;-88
2022/08/03 01:42:15;;;;;;;7.70;1.90;;;18.60;99.90;;;;;;4751033;30;20489;-88
2022/08/03 01:44:44;;;;;;;10.07;2.13;;;18.60;99.90;;;;;;4751313;30;20390;-89
2022/08/03 01:47:11;;;;;;;7.53;1.60;;;18.70;99.90;;;;;;4750880;30;20060;-88
2022/08/03 01:49:41;;;;;;;12.13;1.88;;;18.70;99.90;;;;;;4751426;30;20055;-88
2022/08/03 01:52:09;;;;;;;14.65;2.17;;;18.70;99.90;;;;;;4736129;30;20552;-88
2022/08/03 01:54:41;;;;;;;10.55;2.10;;;18.70;99.90;;;;;;4751741;30;20051;-88
2022/08/03 01:57:09;;;;;;;11.55;1.50;;;18.70;99.90;;;;;;4750964;30;20048;-88
2022/08/03 01:59:36;;;;;;;8.82;2.10;;;18.70;99.90;;;;;;4749626;30;20055;-89
2022/08/03 02:02:04;;;;;;;8.05;1.92;;;18.60;99.90;;;;;;4735882;30;20156;-89
2022/08/03 02:04:30;;;;;;;10.93;2.20;;;18.70;99.90;;;;;;4750409;30;20052;-88
2022/08/03 02:06:57;;;;;;;9.02;2.00;;;18.60;99.90;;;;;;4750859;30;20150;-88
2022/08/03 02:09:26;;;;;;;12.25;2.60;;;18.60;99.90;;;;;;4751098;30;20130;-88
2022/08/03 02:11:53;;;;;;;9.48;1.88;;;18.60;99.90;;;;;;4750589;30;20123;-88
2022/08/03 02:14:21;;;;;;;13.23;2.60;;;18.60;99.90;;;;;;4751254;30;20044;-88
2022/08/03 02:16:49;;;;;;;9.90;2.13;;;18.50;99.90;;;;;;4750710;30;20059;-88
2022/08/03 02:19:16;;;;;;;18.00;2.05;;;18.60;99.90;;;;;;4751718;30;20412;-88
2022/08/03 02:21:44;;;;;;;14.52;1.90;;;18.50;99.90;;;;;;4768043;30;20051;-87
2022/08/03 02:24:10;;;;;;;6.30;1.45;;;18.50;99.90;;;;;;4764622;30;20119;-88
2022/08/03 02:26:38;;;;;;;12.18;2.30;;;18.50;99.90;;;;;;4745578;30;20059;-88
2022/08/03 02:29:12;;;;;;;13.10;1.92;;;18.50;99.90;;;;;;4743360;30;20086;-88
2022/08/03 02:31:40;;;;;;;10.90;2.10;;;18.50;99.90;;;;;;4759967;30;20055;-88
2022/08/03 02:34:12;;;;;;;8.63;1.90;;;18.40;99.90;;;;;;4753013;30;20570;-88
2022/08/03 02:36:39;;;;;;;10.52;2.10;;;18.40;99.90;;;;;;4743158;30;20298;-88
2022/08/03 02:39:08;;;;;;;8.10;1.77;;;18.40;99.90;;;;;;4735662;30;20084;-88
2022/08/03 02:41:41;;;;;;;12.40;2.53;;;18.40;99.90;;;;;;4735561;30;20043;-88
2022/08/03 02:44:09;;;;;;;9.23;1.88;;;18.40;99.90;;;;;;4750621;30;20143;-88
2022/08/03 02:46:37;;;;;;;15.40;2.10;;;18.40;99.90;;;;;;4749845;30;20056;-88
2022/08/03 02:49:05;;;;;;;11.07;1.73;;;18.40;99.90;;;;;;4740598;29;20054;-88
2022/08/03 02:51:34;;;;;;;7.75;1.85;;;18.40;99.90;;;;;;4770720;29;20043;-88
2022/08/03 02:54:02;;;;;;;14.85;2.05;;;18.30;99.90;;;;;;4771724;29;20046;-88
2022/08/03 02:56:29;;;;;;;11.35;1.90;;;18.30;99.90;;;;;;4758768;30;20050;-88
2022/08/03 02:58:57;;;;;;;12.45;2.15;;;18.30;99.90;;;;;;4768350;30;20047;-88
2022/08/03 03:01:24;;;;;;;11.27;1.95;;;18.30;99.90;;;;;;4766843;30;20061;-88
2022/08/03 03:03:52;;;;;;;15.05;2.08;;;18.20;99.90;;;;;;4767570;30;20059;-88
2022/08/03 03:06:18;;;;;;;8.88;1.80;;;18.30;99.90;;;;;;4767766;30;20134;-87
2022/08/03 03:08:45;;;;;;;9.43;1.95;;;18.20;99.90;;;;;;4767428;30;20130;-87
2022/08/03 03:11:13;;;;;;;12.93;1.98;;;18.20;99.90;;;;;;4767653;30;20154;-88
2022/08/03 03:13:43;;;;;;;10.43;2.30;;;18.20;99.90;;;;;;4767730;30;20063;-88
2022/08/03 03:16:10;;;;;;;12.55;2.25;;;18.20;99.90;;;;;;4770277;30;20062;-88
2022/08/03 03:18:38;;;;;;;9.30;1.70;;;18.20;99.90;;;;;;4770490;30;20130;-87
2022/08/03 03:21:04;;;;;;;16.10;2.17;;;18.10;99.90;;;;;;4771093;30;20556;-87
2022/08/03 03:23:30;;;;;;;11.27;2.50;;;18.10;99.90;;;;;;4771039;30;20127;-88
2022/08/03 03:25:57;;;;;;;13.40;2.17;;;18.10;99.90;;;;;;4771440;30;20051;-88
2022/08/03 03:28:24;;;;;;;9.25;1.98;;;18.10;99.90;;;;;;4770807;30;20543;-87
2022/08/03 03:30:51;;;;;;;11.65;2.35;;;18.10;99.90;;;;;;4770445;30;20055;-88
2022/08/03 03:33:17;;;;;;;11.30;1.90;;;18.10;99.90;;;;;;4770590;30;20050;-87
2022/08/03 03:35:45;;;;;;;13.60;2.10;;;18.10;99.90;;;;;;4770613;30;20055;-88
2022/08/03 03:38:11;;;;;;;6.53;1.65;;;18.10;99.90;;;;;;4769808;30;20047;-88
2022/08/03 03:40:37;;;;;;;12.30;1.98;;;18.10;99.90;;;;;;4770094;30;20070;-87
2022/08/03 03:43:07;;;;;;;11.27;2.15;;;18.10;99.90;;;;;;4770655;30;20048;-87
2022/08/03 03:45:34;;;;;;;12.82;2.10;;;18.00;99.90;;;;;;4769693;30;20062;-88
2022/08/03 03:48:03;;;;;;;12.88;2.05;;;18.10;99.90;;;;;;4770427;30;20039;-87
2022/08/03 03:50:31;;;;;;;9.98;2.00;;;18.10;99.90;;;;;;4769660;30;20078;-87
2022/08/03 03:52:57;;;;;;;13.52;2.40;;;18.00;99.90;;;;;;4769884;30;20471;-87
2022/08/03 03:55:23;;;;;;;12.18;3.10;;;18.10;99.90;;;;;;4769739;30;20477;-88
2022/08/03 03:57:49;;;;;;;11.68;2.25;;;18.10;99.90;;;;;;4770391;30;20054;-88
2022/08/03 04:00:17;;;;;;;13.85;2.90;;;18.10;99.90;;;;;;4769181;30;20063;-88
2022/08/03 04:02:44;;;;;;;11.77;2.28;;;18.10;99.90;;;;;;4770015;30;20063;-87
2022/08/03 04:11:09;;;;;;;12.30;2.38;;;18.10;99.90;;;;;;4770072;30;20142;-88
2022/08/03 04:13:41;;;;;;;7.40;2.15;;;18.10;99.90;;;;;;4755131;30;20517;-88
2022/08/03 04:16:11;;;;;;;9.52;2.28;;;18.10;99.90;;;;;;4769738;30;20097;-88
2022/08/03 04:18:39;;;;;;;8.93;2.25;;;18.10;99.90;;;;;;4770623;30;20051;-89
2022/08/03 04:21:09;;;;;;;9.27;2.20;;;18.10;99.90;;;;;;4769968;30;20051;-87
2022/08/03 04:23:39;;;;;;;13.50;2.30;;;18.10;99.90;;;;;;4770207;30;20090;-88
2022/08/03 04:26:10;;;;;;;14.88;3.17;;;18.10;99.90;;;;;;4769733;29;20058;-88
2022/08/03 04:28:38;;;;;;;14.13;2.50;;;18.10;99.90;;;;;;4757163;30;20058;-88
2022/08/03 04:31:06;;;;;;;11.18;2.30;;;18.20;99.90;;;;;;4769178;30;20112;-88
2022/08/03 04:33:34;;;;;;;15.30;2.33;;;18.20;99.90;;;;;;4767386;30;20062;-88
2022/08/03 04:36:02;;;;;;;12.07;2.42;;;18.20;99.90;;;;;;4769661;30;20055;-87
2022/08/03 04:38:30;;;;;;;14.50;2.30;;;18.20;99.90;;;;;;4769519;30;20058;-86
2022/08/03 04:40:56;;;;;;;13.13;2.70;;;18.20;99.90;;;;;;4769047;30;20062;-87
2022/08/03 04:43:24;;;;;;;16.80;2.22;;;18.30;99.90;;;;;;4769556;30;20055;-88
2022/08/03 04:45:51;;;;;;;14.52;2.40;;;18.30;99.90;;;;;;4769807;30;20144;-88
2022/08/03 04:48:18;;;;;;;12.02;2.80;;;18.30;99.90;;;;;;4769538;30;20043;-88
2022/08/03 04:50:46;;;;;;;16.30;3.25;;;18.40;99.90;;;;;;4769405;30;20051;-87
2022/08/03 04:53:12;;;;;;;12.82;3.05;;;18.40;99.90;;;;;;4769675;30;20209;-88
2022/08/03 04:55:38;;;;;;;11.02;2.50;;;18.50;99.90;;;;;;4769515;30;20137;-88
2022/08/03 04:58:05;;;;;;;14.45;3.03;;;18.50;99.90;;;;;;4754444;30;20047;-87
2022/08/03 05:00:31;;;;;;;13.20;3.03;;;18.50;99.90;;;;;;4769334;30;20132;-88
2022/08/03 05:02:57;;;;;;;10.35;3.00;;;18.60;99.90;;;;;;4769110;30;20456;-88
2022/08/03 05:05:23;;;;;;;14.40;2.97;;;18.60;99.90;;;;;;4754667;30;20113;-88
2022/08/03 05:07:49;;;;;;;6.65;2.25;;;18.70;99.90;;;;;;4770069;30;20515;-88
2022/08/03 05:10:15;;;;;;;13.45;3.10;;;18.70;99.90;;;;;;4768913;30;20054;-88
2022/08/03 05:12:41;;;;;;;17.85;2.90;;;18.80;99.90;;;;;;4769603;30;20096;-88
2022/08/03 05:15:07;;;;;;;14.00;2.50;;;18.80;99.90;;;;;;4769175;30;20109;-88
2022/08/03 05:17:33;;;;;;;12.43;2.53;;;18.90;99.90;;;;;;4769206;30;20070;-88
2022/08/03 05:20:00;;;;;;;14.20;2.40;;;18.90;99.90;;;;;;4755057;30;20488;-87
2022/08/03 05:22:26;;;;;;;16.40;2.83;;;18.90;99.90;;;;;;4753562;30;20098;-88
2022/08/03 05:24:51;;;;;;;12.40;2.65;;;18.90;99.90;;;;;;4769898;30;20105;-88
2022/08/03 05:27:18;;;;;;;15.50;3.05;;;19.00;99.90;;;;;;4768998;30;20438;-88
2022/08/03 05:29:46;;;;;;;10.13;2.75;;;19.00;99.90;;;;;;4769220;30;20055;-88
2022/08/03 05:32:11;;;;;;;11.13;2.70;;;19.10;99.90;;;;;;4783872;30;20051;-87
2022/08/03 05:34:37;;;;;;;13.70;3.03;;;19.10;99.90;;;;;;4769073;30;20051;-88
2022/08/03 05:37:03;;;;;;;18.30;3.13;;;19.20;99.90;;;;;;4769459;30;20050;-88
2022/08/03 05:39:29;;;;;;;17.92;2.97;;;19.30;99.90;;;;;;4767992;30;20508;-88
2022/08/03 05:41:54;;;;;;;20.73;2.80;;;19.30;99.90;;;;;;4769659;30;20465;-88
2022/08/03 05:44:20;;;;;;;10.13;2.28;;;19.40;99.90;;;;;;4768305;30;20511;-88
2022/08/03 05:46:46;;;;;;;14.73;2.63;;;19.40;99.90;;;;;;4768886;30;20134;-89
2022/08/03 05:49:12;;;;;;;14.43;3.10;;;19.40;99.90;;;;;;4769115;30;20157;-87
2022/08/03 05:51:38;;;;;;;24.45;2.95;;;19.50;99.90;;;;;;4768003;30;20087;-88
2022/08/03 05:54:03;;;;;;;14.70;2.85;;;19.50;99.90;;;;;;4769134;30;20051;-88
2022/08/03 05:56:29;;;;;;;13.57;2.58;;;19.60;99.90;;;;;;4759837;30;20062;-88
2022/08/03 05:58:55;;;;;;;10.60;2.70;;;19.60;99.90;;;;;;4754104;30;20047;-88
2022/08/03 06:01:21;;;;;;;20.10;3.10;;;19.70;99.90;;;;;;4749809;30;20063;-88
2022/08/03 06:03:48;;;;;;;10.65;2.33;;;19.80;99.90;;;;;;4736258;30;20048;-87
2022/08/03 06:06:14;;;;;;;14.07;2.65;;;19.90;99.90;;;;;;4736119;30;20058;-87
2022/08/03 06:08:41;;;;;;;13.40;2.88;;;20.00;99.90;;;;;;4736475;30;20168;-88
2022/08/03 06:11:07;;;;;;;12.55;2.88;;;20.10;99.90;;;;;;4736402;30;20058;-88
2022/08/03 06:13:33;;;;;;;14.05;2.88;;;20.20;99.90;;;;;;4750766;30;20047;-88
2022/08/03 06:15:59;;;;;;;13.52;2.67;;;20.20;99.90;;;;;;4735976;30;20048;-87
2022/08/03 06:18:24;;;;;;;16.13;3.08;;;20.30;99.90;;;;;;4735969;30;20051;-88
2022/08/03 06:20:51;;;;;;;18.20;2.70;;;20.30;99.90;;;;;;4750963;30;20056;-89
2022/08/03 06:23:17;;;;;;;11.77;2.10;;;20.40;99.90;;;;;;4751042;30;20517;-88
2022/08/03 06:25:43;;;;;;;20.38;3.15;;;20.40;99.90;;;;;;4735958;30;20056;-87
2022/08/03 06:28:09;;;;;;;9.13;2.65;;;20.50;99.90;;;;;;4735697;30;20051;-87
2022/08/03 06:30:35;;;;;;;13.50;2.45;;;20.60;99.90;;;;;;4735591;30;20055;-88
2022/08/03 06:33:00;;;;;;;13.60;2.22;;;20.60;99.90;;;;;;4749439;30;20500;-88
2022/08/03 06:35:26;;;;;;;17.63;3.25;;;20.70;99.90;;;;;;4742992;30;20054;-88
2022/08/03 06:37:53;;;;;;;11.75;2.75;;;20.80;99.90;;;;;;4745609;30;20185;-87
2022/08/03 06:40:30;;;;;;;13.10;2.58;;;20.80;99.90;;;;;;4757720;30;20052;-87
2022/08/03 06:42:56;;;;;;;15.95;2.83;;;20.90;99.90;;;;;;4749325;30;20381;-89
2022/08/03 06:45:22;;;;;;;10.80;2.75;;;21.00;99.90;;;;;;4748281;30;20051;-90
2022/08/03 06:48:00;;;;;;;17.67;2.78;;;21.10;99.90;;;;;;4754262;30;20112;-91
2022/08/03 06:50:26;;;;;;;19.45;3.00;;;21.20;99.90;;;;;;4749077;30;20047;-87
2022/08/03 06:52:52;;;;;;;13.82;3.08;;;21.20;99.90;;;;;;4761027;30;20051;-85
2022/08/03 06:55:18;;;;;;;17.17;2.78;;;21.30;99.90;;;;;;4761614;30;20423;-86
2022/08/03 06:57:44;;;;;;;12.13;2.40;;;21.30;99.90;;;;;;4763835;30;20150;-86
2022/08/03 07:00:10;;;;;;;18.60;3.08;;;21.40;99.90;;;;;;4759726;30;20442;-85
2022/08/03 07:02:37;;;;;;;13.95;3.00;;;21.50;99.90;;;;;;4761458;30;20067;-86
2022/08/03 07:05:03;;;;;;;16.67;2.88;;;21.50;99.90;;;;;;4758185;30;20040;-85
2022/08/03 07:07:29;;;;;;;14.20;2.58;;;21.60;99.90;;;;;;4761061;30;20058;-89
2022/08/03 07:09:54;;;;;;;10.50;2.60;;;21.70;99.90;;;;;;4752632;30;20052;-86
2022/08/03 07:12:20;;;;;;;14.95;2.78;;;21.80;99.90;;;;;;4751862;30;20139;-88
2022/08/03 07:14:46;;;;;;;13.95;2.40;;;21.90;99.90;;;;;;4768060;30;20135;-87
2022/08/03 07:17:11;;;;;;;10.75;2.63;;;22.00;99.90;;;;;;4752915;30;20131;-85
2022/08/03 07:19:37;;;;;;;13.02;2.75;;;22.10;99.90;;;;;;4769593;30;20047;-85
2022/08/03 07:22:03;;;;;;;16.08;3.17;;;22.20;99.90;;;;;;4750805;30;20048;-86
2022/08/03 07:24:29;;;;;;;16.42;2.92;;;22.20;99.90;;;;;;4763949;30;20051;-86
2022/08/03 07:26:55;;;;;;;11.75;2.85;;;22.30;99.90;;;;;;4765693;30;20055;-85
2022/08/03 07:29:20;;;;;;;15.98;3.20;;;22.40;99.90;;;;;;4770426;30;20047;-89
2022/08/03 07:31:46;;;;;;;13.38;2.90;;;22.40;99.90;;;;;;4762694;30;20055;-87
2022/08/03 07:34:12;;;;;;;19.25;2.88;;;22.50;99.90;;;;;;4752918;30;20567;-87
2022/08/03 07:36:38;;;;;;;16.48;3.08;;;22.50;99.90;;;;;;4752572;30;20052;-87
2022/08/03 07:39:04;;;;;;;11.15;2.97;;;22.60;99.90;;;;;;4753078;30;20058;-89
2022/08/03 07:41:30;;;;;;;16.50;2.80;;;22.70;99.90;;;;;;4752406;30;20098;-89
2022/08/03 07:43:56;;;;;;;16.13;2.63;;;22.70;99.90;;;;;;4767980;30;20048;-88
2022/08/03 07:46:22;;;;;;;16.73;3.75;;;22.80;99.90;;;;;;4752108;30;20406;-87
2022/08/03 07:48:48;;;;;;;14.23;2.50;;;22.80;99.90;;;;;;4752293;30;20062;-86
2022/08/03 07:51:13;;;;;;;14.55;2.70;;;22.90;99.90;;;;;;4752151;30;20055;-85
2022/08/03 07:53:39;;;;;;;19.20;3.30;;;23.00;99.90;;;;;;4752197;30;20568;-86
2022/08/03 07:56:05;;;;;;;13.40;2.65;;;23.10;99.90;;;;;;4761310;30;20044;-85
2022/08/03 07:58:30;;;;;;;10.20;2.45;;;23.20;99.90;;;;;;4754689;30;20450;-85
2022/08/03 08:00:56;;;;;;;13.20;2.78;;;23.30;99.90;;;;;;4754376;30;20110;-85
2022/08/03 08:03:22;;;;;;;15.45;2.60;;;23.30;99.90;;;;;;4754484;30;20059;-87
2022/08/03 08:05:48;;;;;;;25.02;2.90;;;23.40;99.90;;;;;;4754996;30;20062;-86
2022/08/03 08:08:14;;;;;;;13.57;2.72;;;23.40;99.90;;;;;;4754719;30;20493;-87
2022/08/03 08:10:39;;;;;;;13.30;2.55;;;23.50;99.90;;;;;;4754766;30;20058;-86
2022/08/03 08:13:05;;;;;;;12.10;2.38;;;23.50;99.90;;;;;;4768995;30;20501;-86
2022/08/03 08:15:31;;;;;;;17.65;3.10;;;23.60;99.90;;;;;;4754857;30;20051;-87
2022/08/03 08:17:59;;;;;;;12.68;3.17;;;23.70;99.90;;;;;;4754779;30;20058;-86
2022/08/03 08:20:28;;;;;;;16.00;3.03;;;23.70;99.90;;;;;;4754257;30;20143;-85
2022/08/03 08:22:55;;;;;;;10.50;2.25;;;23.70;99.90;;;;;;4754349;30;20496;-86
2022/08/03 08:25:21;;;;;;;14.77;2.42;;;23.90;99.90;;;;;;4753517;30;20051;-86
2022/08/03 08:27:48;;;;;;;14.13;2.50;;;24.00;99.90;;;;;;4754836;30;20047;-86
2022/08/03 08:30:17;;;;;;;17.90;2.67;;;24.10;99.90;;;;;;4754168;30;20117;-86
2022/08/03 08:32:44;;;;;;;12.10;2.47;;;24.20;99.90;;;;;;4753915;30;20047;-86
2022/08/03 08:35:11;;;;;;;12.27;2.90;;;24.20;99.90;;;;;;4754007;30;20055;-85
2022/08/03 08:37:37;;;;;;;12.40;3.28;;;24.30;99.90;;;;;;4755257;30;20057;-87
2022/08/03 08:40:05;;;;;;;12.10;2.50;;;24.40;99.90;;;;;;4754238;30;20163;-88
2022/08/03 08:42:31;;;;;;;12.52;2.88;;;24.30;99.90;;;;;;4754700;30;20047;-85
2022/08/03 08:44:58;;;;;;;15.57;2.95;;;24.30;99.90;;;;;;4751229;30;20054;-86
2022/08/03 08:47:28;;;;;;;13.38;2.47;;;24.30;99.90;;;;;;4750493;30;20050;-87
2022/08/03 08:49:54;;;;;;;14.50;2.70;;;24.20;99.90;;;;;;4751285;30;20464;-86
2022/08/03 08:52:25;;;;;;;18.73;2.67;;;24.10;99.90;;;;;;4736494;30;20151;-87
2022/08/03 08:54:56;;;;;;;12.77;3.13;;;24.10;99.90;;;;;;4751158;30;20082;-86
2022/08/03 08:57:27;;;;;;;10.55;2.55;;;24.20;99.90;;;;;;4751028;30;20091;-86
2022/08/03 08:59:55;;;;;;;19.95;2.95;;;24.40;99.90;;;;;;4751082;30;20051;-86
2022/08/03 09:02:23;;;;;;;15.00;3.00;;;24.60;99.90;;;;;;4749750;30;20566;-87
2022/08/03 09:04:49;;;;;;;15.50;3.05;;;24.70;99.90;;;;;;4736775;30;20067;-86
2022/08/03 09:07:16;;;;;;;13.40;2.35;;;24.60;99.90;;;;;;4751088;30;20530;-87
2022/08/03 09:09:42;;;;;;;13.43;2.55;;;24.60;99.90;;;;;;4750887;30;20055;-86
2022/08/03 09:12:08;;;;;;;16.70;2.83;;;24.60;99.90;;;;;;4735882;30;20048;-87
2022/08/03 09:14:34;;;;;;;13.15;2.67;;;24.50;99.90;;;;;;4750864;30;20074;-86
2022/08/03 09:17:02;;;;;;;14.18;2.90;;;24.50;99.90;;;;;;4750630;30;20062;-86
2022/08/03 09:19:30;;;;;;;12.85;2.47;;;24.50;99.90;;;;;;4751218;30;20134;-87
2022/08/03 09:22:12;;;;;;;26.02;2.90;;;24.60;99.90;;;;;;4750543;30;20048;-87
2022/08/03 09:24:55;;;;;;;16.48;2.78;;;24.70;99.90;;;;;;4750929;30;20089;-87
2022/08/03 09:27:21;;;;;;;10.98;3.00;;;24.70;99.90;;;;;;4735545;30;20078;-86
2022/08/03 09:29:49;;;;;;;13.23;2.60;;;24.80;99.90;;;;;;4750667;30;20044;-86
2022/08/03 09:32:18;;;;;;;16.02;3.20;;;25.00;99.90;;;;;;4750285;30;20090;-88
2022/08/03 09:34:45;;;;;;;14.15;2.88;;;25.10;99.90;;;;;;4754707;29;20039;-86
2022/08/03 09:37:15;;;;;;;13.80;3.42;;;25.30;99.90;;;;;;4786175;29;20054;-86
2022/08/03 09:39:41;;;;;;;17.02;3.10;;;25.30;99.90;;;;;;4771072;30;20156;-87
2022/08/03 09:42:11;;;;;;;14.05;2.70;;;25.50;99.90;;;;;;4753404;30;20750;-87
2022/08/03 09:44:41;;;;;;;11.48;3.20;;;25.70;99.90;;;;;;4754098;30;20138;-88
2022/08/03 09:47:09;;;;;;;18.15;3.05;;;25.80;99.90;;;;;;4751995;30;20044;-88
2022/08/03 09:49:36;;;;;;;16.75;2.97;;;25.80;99.90;;;;;;4767831;30;20047;-86
2022/08/03 09:52:17;;;;;;;13.13;3.00;;;25.80;99.90;;;;;;4752301;30;20054;-85
2022/08/03 09:54:44;;;;;;;11.32;3.42;;;25.90;99.90;;;;;;4752285;30;20058;-86
2022/08/03 09:57:21;;;;;;;18.27;2.65;;;26.00;99.90;;;;;;4752751;30;20137;-87
2022/08/03 09:59:46;;;;;;;17.33;4.00;;;26.00;99.90;;;;;;4753369;30;20524;-86
2022/08/03 10:02:24;;;;;;;12.52;3.05;;;26.00;99.90;;;;;;4751924;30;20124;-86
2022/08/03 10:04:51;;;;;;;13.85;2.83;;;26.00;99.90;;;;;;4752850;30;20047;-86
2022/08/03 10:07:20;;;;;;;14.68;2.88;;;26.10;99.90;;;;;;4752449;30;20111;-86
2022/08/03 10:09:55;;;;;;;9.82;2.78;;;26.10;99.90;;;;;;4752819;30;20125;-86
2022/08/03 10:12:22;;;;;;;21.02;2.95;;;26.20;99.90;;;;;;4766577;30;20092;-86
2022/08/03 10:14:47;;;;;;;21.48;3.20;;;26.30;99.90;;;;;;4767408;30;20054;-86
2022/08/03 10:17:13;;;;;;;16.83;3.03;;;26.40;99.90;;;;;;4751242;30;20051;-85
2022/08/03 10:19:40;;;;;;;17.90;2.85;;;26.50;99.90;;;;;;4766780;30;20055;-85
2022/08/03 10:22:18;;;;;;;18.38;3.20;;;26.50;99.90;;;;;;4752401;30;20055;-85
2022/08/03 10:24:54;;;;;;;15.90;2.92;;;26.50;99.90;;;;;;4767156;30;20124;-86
2022/08/03 10:27:22;;;;;;;17.40;2.85;;;26.50;99.90;;;;;;4752182;30;20080;-85
2022/08/03 10:29:54;;;;;;;10.30;2.58;;;26.50;99.90;;;;;;4753058;30;20087;-86
2022/08/03 10:32:29;;;;;;;11.75;2.83;;;26.60;99.90;;;;;;4750750;30;20062;-86
2022/08/03 10:35:04;;;;;;;14.45;2.85;;;26.70;99.90;;;;;;4752658;30;20139;-87
2022/08/03 10:37:35;;;;;;;11.88;2.70;;;26.80;99.90;;;;;;4752029;30;20134;-86
2022/08/03 10:40:02;;;;;;;11.43;2.53;;;26.80;99.90;;;;;;4752164;30;20044;-86
2022/08/03 10:42:30;;;;;;;14.70;2.65;;;26.90;99.90;;;;;;4766937;30;20089;-86
2022/08/03 10:45:05;;;;;;;16.75;2.97;;;26.80;99.90;;;;;;4767049;30;20062;-85
2022/08/03 10:47:33;;;;;;;12.77;2.40;;;26.90;99.90;;;;;;4766732;30;20424;-86
2022/08/03 10:50:00;;;;;;;13.52;2.20;;;27.00;99.90;;;;;;4748651;30;20515;-86
2022/08/03 10:52:26;;;;;;;9.93;2.30;;;27.10;99.90;;;;;;4734081;30;20068;-86
2022/08/03 10:57:45;;;;;;;14.80;2.92;;;26.90;99.90;;;;;;4748371;30;20442;-87
2022/08/03 11:00:13;;;;;;;11.15;2.60;;;26.90;99.90;;;;;;4733872;30;20066;-86
2022/08/03 11:03:08;;;;;;;15.35;2.63;;;26.80;99.90;;;;;;4733249;30;20964;-86
2022/08/03 11:05:37;;;;;;;19.05;3.50;;;26.70;99.90;;;;;;4747998;30;20059;-85
2022/08/03 11:08:29;;;;;;;19.50;2.85;;;26.70;99.90;;;;;;4732445;30;20067;-87
2022/08/03 11:11:22;;;;;;;18.85;2.80;;;26.70;99.90;;;;;;4748067;30;20052;-86
2022/08/03 11:14:02;;;;;;;16.65;3.30;;;26.80;99.90;;;;;;4737171;30;20123;-87
2022/08/03 11:16:29;;;;;;;13.50;2.80;;;27.00;99.90;;;;;;4750651;30;20062;-86
2022/08/03 11:18:59;;;;;;;12.45;3.40;;;27.10;99.90;;;;;;4751467;30;20079;-86
2022/08/03 11:21:55;;;;;;;19.20;3.30;;;27.30;99.90;;;;;;4765206;30;20104;-87
2022/08/03 11:24:42;;;;;;;15.63;3.22;;;27.50;99.90;;;;;;4750357;30;20062;-86
2022/08/03 11:27:14;;;;;;;23.60;3.35;;;27.60;99.90;;;;;;4764624;30;20519;-86
2022/08/03 11:29:59;;;;;;;15.75;4.00;;;27.70;99.90;;;;;;4764998;30;20047;-86
2022/08/03 11:32:53;;;;;;;13.77;3.00;;;27.70;99.90;;;;;;4763773;30;20412;-86
2022/08/03 11:35:25;;;;;;;20.27;2.97;;;27.70;99.90;;;;;;4750528;29;20124;-86
2022/08/03 11:37:56;;;;;;;16.38;3.60;;;27.70;99.90;;;;;;4753978;30;20161;-86
2022/08/03 11:40:40;;;;;;;19.50;3.35;;;27.70;99.90;;;;;;4768406;30;20136;-86
2022/08/03 11:43:26;;;;;;;15.23;3.28;;;27.80;99.90;;;;;;4768267;30;20061;-86
2022/08/03 11:46:06;;;;;;;16.08;2.92;;;27.80;99.90;;;;;;4768980;30;20062;-85
2022/08/03 11:48:34;;;;;;;26.63;4.45;;;27.80;99.90;;;;;;4753866;30;20094;-86
2022/08/03 11:51:01;;;;;;;22.83;3.83;;;27.90;99.90;;;;;;4753180;30;20062;-87
2022/08/03 11:53:27;;;;;;;17.05;3.45;;;27.90;99.90;;;;;;4753868;30;20139;-86
2022/08/03 11:55:57;;;;;;;22.27;3.53;;;27.90;99.90;;;;;;4753951;30;20130;-86
2022/08/03 11:58:23;;;;;;;23.48;3.83;;;27.90;99.90;;;;;;4753178;30;20471;-85
2022/08/03 12:00:50;;;;;;;19.45;3.63;;;27.90;99.90;;;;;;4752799;30;20051;-86
2022/08/03 12:03:18;;;;;;;25.63;3.97;;;27.90;99.90;;;;;;4764355;30;20059;-86
2022/08/03 12:05:47;;;;;;;17.88;4.43;;;28.00;99.90;;;;;;4751029;30;20059;-86
2022/08/03 12:08:15;;;;;;;19.13;3.80;;;28.00;99.90;;;;;;4751173;30;20051;-86
2022/08/03 12:10:47;;;;;;;18.85;4.28;;;28.10;99.90;;;;;;4753570;30;20085;-88
2022/08/03 12:13:14;;;;;;;23.67;4.07;;;28.20;99.90;;;;;;4769437;30;20055;-87
2022/08/03 12:15:40;;;;;;;23.38;3.92;;;28.20;99.90;;;;;;4754213;30;20059;-87
2022/08/03 12:18:34;;;;;;;21.98;3.35;;;28.20;99.90;;;;;;4754370;30;20047;-87
2022/08/03 12:21:09;;;;;;;23.92;3.92;;;28.20;99.90;;;;;;4748117;30;20066;-88
2022/08/03 12:23:36;;;;;;;20.20;4.20;;;28.10;99.90;;;;;;4755505;30;20056;-86
2022/08/03 12:26:05;;;;;;;16.45;3.15;;;28.20;99.90;;;;;;4755133;30;20410;-87
2022/08/03 12:28:31;;;;;;;29.52;3.78;;;28.20;99.90;;;;;;4755095;30;20512;-86
2022/08/03 12:31:05;;;;;;;39.45;5.68;;;28.20;99.90;;;;;;4769692;30;20330;-86
2022/08/03 12:33:31;;;;;;;24.90;3.17;;;28.20;99.90;;;;;;4754820;30;20904;-88
2022/08/03 12:36:08;;;;;;;15.73;3.40;;;28.30;99.90;;;;;;4755462;30;20130;-87
2022/08/03 12:38:36;;;;;;;14.43;3.28;;;28.40;99.90;;;;;;4754237;30;20436;-85
2022/08/03 12:41:05;;;;;;;17.67;3.47;;;28.30;99.90;;;;;;4755153;30;20090;-87
2022/08/03 12:43:31;;;;;;;32.10;4.97;;;28.30;99.90;;;;;;4754604;30;20112;-88
2022/08/03 12:46:08;;;;;;;19.70;3.92;;;28.20;99.90;;;;;;4754222;30;20043;-87
2022/08/03 12:48:34;;;;;;;22.80;3.95;;;28.20;99.90;;;;;;4753732;30;20051;-87
2022/08/03 12:51:09;;;;;;;20.60;3.58;;;28.30;99.90;;;;;;4754977;30;20109;-86
2022/08/03 12:53:35;;;;;;;20.20;3.10;;;28.40;99.90;;;;;;4768871;30;20084;-86
2022/08/03 12:56:02;;;;;;;27.33;4.15;;;28.50;99.90;;;;;;4752779;30;20482;-86